Time;durP1;ratioP1;P1;durP2;ratioP2;P2;SDS_P1;SDS_P2;PMS_P1;PMS_P2;Temp;Humidity;BMP_temperature;BMP_pressure;BME280_temperature;BME280_humidity;BME280_pressure;Samples;Min_cycle;Max_cycle;Signal;HPM_P1;HPM_P2
2021/06/27 00:01:06;;;;;;;;;;;;;;;;;;5023731;28;19971;-78
2021/06/27 00:03:32;;;;;;;;;;;;;;;;;;5025845;28;19916;-79
2021/06/27 00:05:58;;;;;;;;;;;;;;;;;;5023622;28;19924;-81
2021/06/27 00:08:24;;;;;;;;;;;;;;;;;;5013232;28;19920;-80
2021/06/27 00:10:51;;;;;;;;;;;;;;;;;;5025060;28;19912;-79
2021/06/27 00:13:17;;;;;;;;;;;;;;;;;;5024115;28;20366;-80
2021/06/27 00:15:43;;;;;;;;;;;;;;;;;;5023719;28;19975;-79
2021/06/27 00:18:09;;;;;;;;;;;;;;;;;;5042486;28;20350;-78
2021/06/27 00:20:35;;;;;;;;;;;;;;;;;;5031208;28;19912;-78
2021/06/27 00:23:02;;;;;;;;;;;;;;;;;;5032775;28;19920;-81
2021/06/27 00:25:28;;;;;;;;;;;;;;;;;;5047922;28;20051;-80
2021/06/27 00:27:54;;;;;;;;;;;;;;;;;;5026756;28;20501;-80
2021/06/27 00:30:20;;;;;;;;;;;;;;;;;;5028894;28;19909;-78
2021/06/27 00:32:46;;;;;;;;;;;;;;;;;;5028167;28;20405;-79
2021/06/27 00:35:12;;;;;;;;;;;;;;;;;;5027929;28;19924;-79
2021/06/27 00:37:37;;;;;;;;;;;;;;;;;;5026158;28;19908;-79
2021/06/27 00:40:03;;;;;;;;;;;;;;;;;;5030690;28;19908;-81
2021/06/27 00:42:29;;;;;;;;;;;;;;;;;;5026515;28;20399;-78
2021/06/27 00:44:55;;;;;;;;;;;;;;;;;;5013717;28;19935;-80
2021/06/27 00:47:21;;;;;;;;;;;;;;;;;;5008548;28;19909;-78
2021/06/27 00:49:47;;;;;;;;;;;;;;;;;;5028914;28;19924;-79
2021/06/27 00:52:13;;;;;;;;;;;;;;;;;;5016353;28;19913;-80
2021/06/27 00:54:38;;;;;;;;;;;;;;;;;;5005492;28;20346;-80
2021/06/27 00:57:04;;;;;;;;;;;;;;;;;;5014096;28;19992;-77
2021/06/27 00:59:30;;;;;;;;;;;;;;;;;;5017623;28;19920;-79
2021/06/27 01:01:56;;;;;;;;;;;;;;;;;;5014826;28;19913;-80
2021/06/27 01:04:24;;;;;;;;;;;;;;;;;;5017095;28;19917;-79
2021/06/27 01:06:50;;;;;;;;;;;;;;;;;;5016073;28;20411;-79
2021/06/27 01:09:16;;;;;;;;;;;;;;;;;;5018616;28;20000;-80
2021/06/27 01:11:42;;;;;;;;;;;;;;;;;;5010050;28;19932;-79
2021/06/27 01:14:07;;;;;;;;;;;;;;;;;;5020742;28;19974;-80
2021/06/27 01:16:37;;;;;;;;;;;;;;;;;;5040358;28;19913;-79
2021/06/27 01:19:03;;;;;;;;;;;;;;;;;;5020238;28;19916;-79
2021/06/27 01:21:29;;;;;;;;;;;;;;;;;;5010107;28;19919;-79
2021/06/27 01:23:55;;;;;;;;;;;;;;;;;;5021874;28;19916;-79
2021/06/27 01:26:21;;;;;;;;;;;;;;;;;;5015233;28;19908;-79
2021/06/27 01:28:46;;;;;;;;;;;;;;;;;;5015607;28;19909;-79
2021/06/27 01:31:25;;;;;;;;;;;;;;;;;;5021441;28;19909;-79
2021/06/27 01:36:39;;;;;;;;;;;;;;;;;;5051931;28;19923;-82
2021/06/27 03:28:53;;;;;;;;;;;;;;;;;;5025186;28;19994;-79
2021/06/27 03:50:32;;;;;;;;;;;;;;;;;;5028816;28;19917;-80
2021/06/27 04:21:58;;;;;;;;;;;;;;;;;;5035346;28;19984;-80
2021/06/27 05:11:02;;;;;;;;;;;;;;;;;;5031912;28;19920;-81
2021/06/27 13:33:30;;;;;;;;;;;;;;;;;;5027820;28;19968;-76
2021/06/27 13:35:56;;;;;;;;;;;;;;;;;;4996481;28;19940;-77
2021/06/27 13:38:21;;;;;;;;;;;;;;;;;;5015571;28;19909;-79
2021/06/27 13:40:50;;;;;;;;;;;;;;;;;;4994510;28;19906;-78
2021/06/27 13:43:29;;;;;;;;;;;;;;;;;;4992376;28;19912;-76
2021/06/27 13:45:54;;;;;;;;;;;;;;;;;;5010397;28;19928;-78
2021/06/27 13:48:20;;;;;;;;;;;;;;;;;;4978850;28;20254;-81
2021/06/27 13:50:46;;;;;;;;;;;;;;;;;;4997042;28;19906;-77
2021/06/27 13:53:12;;;;;;;;;;;;;;;;;;4994444;28;20277;-76
2021/06/27 13:55:47;;;;;;;;;;;;;;;;;;5011076;28;20004;-78
2021/06/27 13:58:13;;;;;;;;;;;;;;;;;;4994100;28;19905;-77
2021/06/27 14:00:39;;;;;;;;;;;;;;;;;;4994551;28;19913;-75
2021/06/27 14:03:05;;;;;;;;;;;;;;;;;;4978578;28;20372;-80
2021/06/27 14:05:31;;;;;;;;;;;;;;;;;;4978629;28;19914;-78
2021/06/27 14:10:41;;;;;;;;;;;;;;;;;;4995537;28;19960;-80
2021/06/27 14:13:07;;;;;;;;;;;;;;;;;;4995428;28;19914;-79
2021/06/27 14:15:33;;;;;;;;;;;;;;;;;;4977655;28;20408;-77
2021/06/27 14:17:59;;;;;;;;;;;;;;;;;;5010503;28;19909;-75
2021/06/27 14:23:28;;;;;;;;;;;;;;;;;;5014916;28;19960;-78
2021/06/27 14:25:54;;;;;;;;;;;;;;;;;;5010887;28;19910;-76
2021/06/27 14:28:20;;;;;;;;;;;;;;;;;;4983876;28;20012;-77
2021/06/27 14:30:46;;;;;;;;;;;;;;;;;;4996796;28;19914;-77
2021/06/27 14:33:12;;;;;;;;;;;;;;;;;;5016761;28;19952;-76
2021/06/27 14:35:40;;;;;;;;;;;;;;;;;;5014998;28;20348;-76
2021/06/27 14:38:05;;;;;;;;;;;;;;;;;;4997341;28;19932;-77
2021/06/27 14:40:32;;;;;;;;;;;;;;;;;;5015075;28;19909;-77
2021/06/27 14:42:58;;;;;;;;;;;;;;;;;;5012551;28;19906;-75
2021/06/27 14:45:23;;;;;;;;;;;;;;;;;;5007871;28;19962;-76
2021/06/27 14:47:55;;;;;;;;;;;;;;;;;;5016136;28;19945;-77
2021/06/27 14:50:21;;;;;;;;;;;;;;;;;;5000548;28;19913;-73
2021/06/27 14:52:46;;;;;;;;;;;;;;;;;;4999235;28;19909;-76
2021/06/27 14:55:12;;;;;;;;;;;;;;;;;;5006832;28;19905;-77
2021/06/27 14:57:39;;;;;;;;;;;;;;;;;;5023159;28;20426;-76
2021/06/27 15:00:11;;;;;;;;;;;;;;;;;;5021600;28;19909;-75
2021/06/27 15:02:37;;;;;;;;;;;;;;;;;;5015282;28;19916;-74
2021/06/27 15:05:02;;;;;;;;;;;;;;;;;;5015233;28;20253;-78
2021/06/27 15:07:28;;;;;;;;;;;;;;;;;;5028703;28;19968;-75
2021/06/27 15:09:54;;;;;;;;;;;;;;;;;;5015762;28;19967;-75
2021/06/27 15:12:20;;;;;;;;;;;;;;;;;;5031390;28;19905;-74
2021/06/27 15:14:46;;;;;;;;;;;;;;;;;;5003049;28;19909;-77
2021/06/27 15:17:12;;;;;;;;;;;;;;;;;;5031771;28;19916;-78
2021/06/27 15:19:38;;;;;;;;;;;;;;;;;;5015162;28;20402;-77
2021/06/27 15:22:04;;;;;;;;;;;;;;;;;;5011703;28;19909;-74
2021/06/27 15:24:29;;;;;;;;;;;;;;;;;;5014153;28;20279;-76
2021/06/27 15:26:55;;;;;;;;;;;;;;;;;;5006140;28;19905;-76
2021/06/27 15:29:21;;;;;;;;;;;;;;;;;;5024662;28;20018;-75
2021/06/27 15:32:03;;;;;;;;;;;;;;;;;;5023405;28;19905;-75
2021/06/27 15:34:29;;;;;;;;;;;;;;;;;;5021363;28;19928;-76
2021/06/27 15:36:55;;;;;;;;;;;;;;;;;;5007990;28;19916;-74
2021/06/27 15:39:21;;;;;;;;;;;;;;;;;;5010062;28;20534;-73
2021/06/27 15:41:47;;;;;;;;;;;;;;;;;;5011802;28;20289;-77
2021/06/27 15:44:15;;;;;;;;;;;;;;;;;;5024875;28;19939;-74
2021/06/27 15:46:41;;;;;;;;;;;;;;;;;;5028877;28;19913;-75
2021/06/27 15:49:07;;;;;;;;;;;;;;;;;;5011346;28;20262;-76
2021/06/27 15:51:33;;;;;;;;;;;;;;;;;;5004221;28;20000;-74
2021/06/27 15:53:59;;;;;;;;;;;;;;;;;;5014234;28;19909;-78
2021/06/27 15:56:26;;;;;;;;;;;;;;;;;;5015085;28;19944;-76
2021/06/27 15:58:52;;;;;;;;;;;;;;;;;;5008746;28;19905;-75
2021/06/27 16:01:18;;;;;;;;;;;;;;;;;;5010570;28;19915;-74
2021/06/27 16:03:44;;;;;;;;;;;;;;;;;;5015115;28;19959;-75
2021/06/27 16:06:10;;;;;;;;;;;;;;;;;;5009370;28;19913;-75
2021/06/27 16:08:37;;;;;;;;;;;;;;;;;;5021905;28;19942;-79
2021/06/27 16:11:03;;;;;;;;;;;;;;;;;;5009843;28;20349;-77
2021/06/27 16:13:29;;;;;;;;;;;;;;;;;;5011426;28;19905;-80
2021/06/27 16:15:55;;;;;;;;;;;;;;;;;;5024280;28;20495;-76
2021/06/27 16:18:21;;;;;;;;;;;;;;;;;;5014336;28;19909;-75
2021/06/27 16:20:47;;;;;;;;;;;;;;;;;;5011266;28;20297;-76
2021/06/27 16:23:13;;;;;;;;;;;;;;;;;;5002449;28;19951;-75
2021/06/27 16:25:39;;;;;;;;;;;;;;;;;;5022769;28;20016;-74
2021/06/27 16:28:06;;;;;;;;;;;;;;;;;;5029665;28;20459;-74
2021/06/27 16:30:32;;;;;;;;;;;;;;;;;;5028749;28;19936;-78
2021/06/27 16:32:58;;;;;;;;;;;;;;;;;;5014423;28;19936;-79
2021/06/27 16:35:24;;;;;;;;;;;;;;;;;;5030658;28;19920;-77
2021/06/27 16:37:50;;;;;;;;;;;;;;;;;;5024891;28;19960;-77
2021/06/27 16:40:28;;;;;;;;;;;;;;;;;;5023328;28;20023;-76
2021/06/27 16:42:53;;;;;;;;;;;;;;;;;;5014465;28;19909;-79
2021/06/27 16:45:20;;;;;;;;;;;;;;;;;;5028018;28;19913;-77
2021/06/27 16:47:46;;;;;;;;;;;;;;;;;;5028668;28;19909;-76
2021/06/27 16:50:12;;;;;;;;;;;;;;;;;;5007989;28;19924;-76
2021/06/27 16:52:44;;;;;;;;;;;;;;;;;;5010321;28;20560;-77
2021/06/27 16:55:10;;;;;;;;;;;;;;;;;;5019902;28;19909;-75
2021/06/27 16:57:36;;;;;;;;;;;;;;;;;;5005846;28;19909;-75
2021/06/27 17:00:02;;;;;;;;;;;;;;;;;;5002714;28;20379;-76
2021/06/27 17:02:28;;;;;;;;;;;;;;;;;;5007785;28;19976;-75
2021/06/27 17:04:57;;;;;;;;;;;;;;;;;;5010073;28;20012;-77
2021/06/27 17:07:23;;;;;;;;;;;;;;;;;;5025920;28;19905;-76
2021/06/27 17:09:49;;;;;;;;;;;;;;;;;;5028527;28;19913;-74
2021/06/27 17:12:17;;;;;;;;;;;;;;;;;;5025843;28;20334;-74
2021/06/27 17:14:43;;;;;;;;;;;;;;;;;;5026321;28;20383;-76
2021/06/27 17:17:27;;;;;;;;;;;;;;;;;;5022956;28;19984;-75
2021/06/27 17:19:53;;;;;;;;;;;;;;;;;;5008062;28;19909;-75
2021/06/27 17:22:19;;;;;;;;;;;;;;;;;;5027624;28;20011;-77
2021/06/27 17:24:45;;;;;;;;;;;;;;;;;;5009935;28;19917;-75
2021/06/27 17:27:11;;;;;;;;;;;;;;;;;;5034949;28;20323;-76
2021/06/27 17:29:43;;;;;;;;;;;;;;;;;;5017183;28;20007;-75
2021/06/27 17:32:09;;;;;;;;;;;;;;;;;;5025874;28;19905;-75
2021/06/27 17:34:35;;;;;;;;;;;;;;;;;;5016849;28;19923;-76
2021/06/27 17:37:02;;;;;;;;;;;;;;;;;;5009152;28;19909;-76
2021/06/27 17:39:30;;;;;;;;;;;;;;;;;;5027997;28;19955;-76
2021/06/27 17:41:58;;;;;;;;;;;;;;;;;;5008214;28;19909;-75
2021/06/27 17:44:24;;;;;;;;;;;;;;;;;;5020503;28;20364;-77
2021/06/27 17:46:50;;;;;;;;;;;;;;;;;;5013399;28;19905;-76
2021/06/27 17:49:18;;;;;;;;;;;;;;;;;;5025964;28;20456;-75
2021/06/27 17:51:44;;;;;;;;;;;;;;;;;;5012330;28;19916;-76
2021/06/27 17:54:09;;;;;;;;;;;;;;;;;;5011215;28;19913;-77
2021/06/27 17:56:36;;;;;;;;;;;;;;;;;;5015447;28;19913;-77
2021/06/27 17:59:02;;;;;;;;;;;;;;;;;;5009349;28;19909;-75
2021/06/27 18:01:28;;;;;;;;;;;;;;;;;;5015326;28;19932;-75
2021/06/27 18:03:57;;;;;;;;;;;;;;;;;;5025504;28;19924;-75
2021/06/27 18:06:23;;;;;;;;;;;;;;;;;;5008882;28;19947;-75
2021/06/27 18:08:49;;;;;;;;;;;;;;;;;;5029683;28;19940;-75
2021/06/27 18:11:15;;;;;;;;;;;;;;;;;;5003839;28;19916;-73
2021/06/27 18:13:40;;;;;;;;;;;;;;;;;;5022171;28;20268;-73
2021/06/27 18:16:06;;;;;;;;;;;;;;;;;;5020642;28;20564;-74
2021/06/27 18:18:32;;;;;;;;;;;;;;;;;;5032534;28;20478;-72
2021/06/27 18:20:58;;;;;;;;;;;;;;;;;;5028005;28;19945;-71
2021/06/27 18:23:24;;;;;;;;;;;;;;;;;;5029127;28;19909;-73
2021/06/27 18:25:50;;;;;;;;;;;;;;;;;;5027472;28;19920;-73
2021/06/27 18:28:16;;;;;;;;;;;;;;;;;;5008821;28;19992;-71
2021/06/27 18:30:42;;;;;;;;;;;;;;;;;;5009883;28;19909;-73
2021/06/27 18:33:08;;;;;;;;;;;;;;;;;;5028030;28;19920;-74
2021/06/27 18:35:33;;;;;;;;;;;;;;;;;;5012695;28;19967;-73
2021/06/27 18:37:59;;;;;;;;;;;;;;;;;;5009770;28;19959;-73
2021/06/27 18:40:25;;;;;;;;;;;;;;;;;;5015527;28;20256;-73
2021/06/27 18:42:51;;;;;;;;;;;;;;;;;;5028603;28;19912;-73
2021/06/27 18:45:19;;;;;;;;;;;;;;;;;;5010039;28;19917;-71
2021/06/27 18:47:44;;;;;;;;;;;;;;;;;;5029433;28;20364;-72
2021/06/27 18:50:10;;;;;;;;;;;;;;;;;;5014969;28;19959;-74
2021/06/27 18:52:37;;;;;;;;;;;;;;;;;;5027379;28;20373;-74
2021/06/27 18:55:03;;;;;;;;;;;;;;;;;;5028676;28;19909;-73
2021/06/27 18:57:30;;;;;;;;;;;;;;;;;;5014111;28;19927;-75
2021/06/27 18:59:56;;;;;;;;;;;;;;;;;;5010511;28;19992;-73
2021/06/27 19:02:26;;;;;;;;;;;;;;;;;;5029788;28;19955;-73
2021/06/27 19:04:53;;;;;;;;;;;;;;;;;;5029207;28;19916;-74
2021/06/27 19:07:19;;;;;;;;;;;;;;;;;;5028315;28;19936;-73
2021/06/27 19:09:50;;;;;;;;;;;;;;;;;;5010414;28;20601;-75
2021/06/27 19:12:16;;;;;;;;;;;;;;;;;;5016380;28;20412;-73
2021/06/27 19:14:41;;;;;;;;;;;;;;;;;;5013768;28;20039;-73
2021/06/27 19:17:07;;;;;;;;;;;;;;;;;;5012114;28;19913;-74
2021/06/27 19:19:33;;;;;;;;;;;;;;;;;;5013946;28;19912;-73
2021/06/27 19:22:00;;;;;;;;;;;;;;;;;;5013709;28;19916;-73
2021/06/27 19:24:26;;;;;;;;;;;;;;;;;;5013994;28;20289;-74
2021/06/27 19:26:52;;;;;;;;;;;;;;;;;;5023639;28;19920;-74
2021/06/27 19:29:18;;;;;;;;;;;;;;;;;;5015583;28;19968;-74
2021/06/27 19:31:44;;;;;;;;;;;;;;;;;;5012282;28;19944;-74
2021/06/27 19:34:10;;;;;;;;;;;;;;;;;;5006971;28;20390;-74
2021/06/27 19:36:36;;;;;;;;;;;;;;;;;;4990163;28;19909;-75
2021/06/27 19:39:03;;;;;;;;;;;;;;;;;;4994867;28;19909;-74
2021/06/27 19:41:30;;;;;;;;;;;;;;;;;;5009679;28;19914;-74
2021/06/27 19:44:08;;;;;;;;;;;;;;;;;;4992816;28;19979;-74
2021/06/27 19:46:34;;;;;;;;;;;;;;;;;;4992340;28;19948;-74
2021/06/27 19:49:00;;;;;;;;;;;;;;;;;;4994241;28;20361;-75
2021/06/27 19:51:26;;;;;;;;;;;;;;;;;;4998124;28;20495;-75
2021/06/27 19:53:52;;;;;;;;;;;;;;;;;;4992251;28;19912;-75
2021/06/27 19:56:18;;;;;;;;;;;;;;;;;;5011161;28;20273;-75
2021/06/27 19:58:44;;;;;;;;;;;;;;;;;;4999471;28;19996;-74
2021/06/27 20:01:10;;;;;;;;;;;;;;;;;;4994362;28;19968;-75
2021/06/27 20:03:36;;;;;;;;;;;;;;;;;;5011536;28;19989;-75
2021/06/27 20:06:05;;;;;;;;;;;;;;;;;;4992592;28;19928;-74
2021/06/27 20:08:31;;;;;;;;;;;;;;;;;;4994900;28;19909;-76
2021/06/27 20:10:56;;;;;;;;;;;;;;;;;;5009037;28;20008;-75
2021/06/27 20:13:22;;;;;;;;;;;;;;;;;;5011884;28;19909;-75
2021/06/27 20:15:51;;;;;;;;;;;;;;;;;;4990016;28;19906;-75
2021/06/27 20:21:07;;;;;;;;;;;;;;;;;;5005964;28;19912;-75
2021/06/27 20:23:33;;;;;;;;;;;;;;;;;;5005727;28;20329;-75
2021/06/27 20:25:59;;;;;;;;;;;;;;;;;;5002008;28;19920;-75
2021/06/27 20:28:25;;;;;;;;;;;;;;;;;;5011622;28;19917;-75
2021/06/27 20:30:51;;;;;;;;;;;;;;;;;;5007860;28;19910;-76
2021/06/27 20:33:22;;;;;;;;;;;;;;;;;;4994070;28;19992;-76
2021/06/27 20:35:48;;;;;;;;;;;;;;;;;;4992303;28;19929;-76
2021/06/27 20:38:14;;;;;;;;;;;;;;;;;;4997881;28;20349;-75
2021/06/27 20:40:40;;;;;;;;;;;;;;;;;;4997398;28;19920;-76
2021/06/27 20:43:09;;;;;;;;;;;;;;;;;;4994779;28;19909;-76
2021/06/27 20:45:35;;;;;;;;;;;;;;;;;;4996073;28;20350;-76
2021/06/27 20:48:01;;;;;;;;;;;;;;;;;;5001586;28;20020;-76
2021/06/27 20:50:29;;;;;;;;;;;;;;;;;;4990955;28;20391;-76
2021/06/27 20:52:57;;;;;;;;;;;;;;;;;;5008806;28;19924;-77
2021/06/27 20:55:24;;;;;;;;;;;;;;;;;;5008286;28;20400;-75
2021/06/27 20:57:50;;;;;;;;;;;;;;;;;;4995337;28;19949;-77
2021/06/27 21:00:15;;;;;;;;;;;;;;;;;;5012360;28;20897;-75
2021/06/27 21:02:41;;;;;;;;;;;;;;;;;;4996009;28;19910;-75
2021/06/27 21:05:13;;;;;;;;;;;;;;;;;;5013649;28;20353;-75
2021/06/27 21:07:39;;;;;;;;;;;;;;;;;;5013883;28;20317;-75
2021/06/27 21:10:05;;;;;;;;;;;;;;;;;;5003629;28;19910;-76
2021/06/27 21:12:31;;;;;;;;;;;;;;;;;;4995065;28;19910;-74
2021/06/27 21:15:00;;;;;;;;;;;;;;;;;;4992718;28;19913;-75
2021/06/27 21:20:10;;;;;;;;;;;;;;;;;;5010219;28;19916;-76
2021/06/27 21:22:36;;;;;;;;;;;;;;;;;;4995555;28;19914;-75
2021/06/27 21:25:02;;;;;;;;;;;;;;;;;;5018374;28;19956;-76
2021/06/27 21:27:28;;;;;;;;;;;;;;;;;;4997153;28;19916;-76
2021/06/27 21:30:12;;;;;;;;;;;;;;;;;;5014755;28;19909;-77
2021/06/27 21:32:38;;;;;;;;;;;;;;;;;;5013056;28;19916;-77
2021/06/27 21:35:04;;;;;;;;;;;;;;;;;;5031571;28;20677;-75
2021/06/27 21:37:30;;;;;;;;;;;;;;;;;;5013437;28;19913;-75
2021/06/27 21:39:55;;;;;;;;;;;;;;;;;;5015920;28;19916;-75
2021/06/27 21:42:23;;;;;;;;;;;;;;;;;;5033705;28;20254;-76
2021/06/27 21:44:48;;;;;;;;;;;;;;;;;;5013569;28;19965;-76
2021/06/27 21:47:14;;;;;;;;;;;;;;;;;;5016471;28;19905;-77
2021/06/27 21:49:40;;;;;;;;;;;;;;;;;;5014374;28;19963;-76
2021/06/27 21:52:06;;;;;;;;;;;;;;;;;;5028779;28;19971;-76
2021/06/27 21:54:35;;;;;;;;;;;;;;;;;;5015875;28;20657;-76
2021/06/27 21:57:01;;;;;;;;;;;;;;;;;;5016244;28;19905;-76
2021/06/27 21:59:27;;;;;;;;;;;;;;;;;;5014884;28;20418;-76
2021/06/27 22:01:53;;;;;;;;;;;;;;;;;;5016113;28;19909;-76
2021/06/27 22:04:19;;;;;;;;;;;;;;;;;;5015822;28;19963;-76
2021/06/27 22:07:00;;;;;;;;;;;;;;;;;;5025001;28;20273;-76
2021/06/27 22:09:26;;;;;;;;;;;;;;;;;;5013247;28;19958;-76
2021/06/27 22:11:52;;;;;;;;;;;;;;;;;;5015935;28;19908;-77
2021/06/27 22:14:17;;;;;;;;;;;;;;;;;;5015707;28;20415;-76
2021/06/27 22:16:43;;;;;;;;;;;;;;;;;;5014588;28;20048;-76
2021/06/27 22:19:12;;;;;;;;;;;;;;;;;;5015323;28;20467;-76
2021/06/27 22:21:38;;;;;;;;;;;;;;;;;;5029445;28;19935;-76
2021/06/27 22:24:04;;;;;;;;;;;;;;;;;;5013786;28;20655;-76
2021/06/27 22:26:30;;;;;;;;;;;;;;;;;;5014037;28;19920;-76
2021/06/27 22:28:56;;;;;;;;;;;;;;;;;;5014342;28;19913;-76
2021/06/27 22:31:28;;;;;;;;;;;;;;;;;;5013898;28;20003;-76
2021/06/27 22:33:54;;;;;;;;;;;;;;;;;;5030558;28;19923;-76
2021/06/27 22:36:20;;;;;;;;;;;;;;;;;;5014137;28;20287;-77
2021/06/27 22:38:45;;;;;;;;;;;;;;;;;;5014574;28;19915;-76
2021/06/27 22:41:11;;;;;;;;;;;;;;;;;;5030479;28;19940;-77
2021/06/27 22:49:06;;;;;;;;;;;;;;;;;;5031687;28;19958;-76
2021/06/27 22:51:32;;;;;;;;;;;;;;;;;;5013899;28;20008;-77
2021/06/27 22:53:58;;;;;;;;;;;;;;;;;;5014829;28;19909;-76
2021/06/27 22:56:24;;;;;;;;;;;;;;;;;;5031965;28;19905;-76
2021/06/27 22:58:56;;;;;;;;;;;;;;;;;;5024943;28;20002;-77
2021/06/27 23:01:21;;;;;;;;;;;;;;;;;;5014099;28;19913;-78
2021/06/27 23:03:47;;;;;;;;;;;;;;;;;;5023413;28;19933;-78
2021/06/27 23:06:13;;;;;;;;;;;;;;;;;;5012942;28;19922;-77
2021/06/27 23:08:39;;;;;;;;;;;;;;;;;;5014689;28;19996;-81
2021/06/27 23:11:08;;;;;;;;;;;;;;;;;;5030268;28;20000;-77
2021/06/27 23:13:34;;;;;;;;;;;;;;;;;;5014068;28;19905;-81
2021/06/27 23:16:00;;;;;;;;;;;;;;;;;;5014477;28;19920;-78
2021/06/27 23:18:25;;;;;;;;;;;;;;;;;;5011473;28;19996;-78
2021/06/27 23:20:51;;;;;;;;;;;;;;;;;;5013814;28;20000;-77
2021/06/27 23:23:17;;;;;;;;;;;;;;;;;;5010360;28;21648;-78
2021/06/27 23:25:43;;;;;;;;;;;;;;;;;;5010942;28;19913;-79
2021/06/27 23:28:09;;;;;;;;;;;;;;;;;;5013553;28;20004;-77
2021/06/27 23:30:36;;;;;;;;;;;;;;;;;;5014719;28;20000;-77
2021/06/27 23:33:03;;;;;;;;;;;;;;;;;;5030941;28;20476;-78
2021/06/27 23:35:29;;;;;;;;;;;;;;;;;;5014877;28;19928;-77
2021/06/27 23:37:55;;;;;;;;;;;;;;;;;;5017976;28;19909;-77
2021/06/27 23:40:21;;;;;;;;;;;;;;;;;;5016523;28;20004;-77
2021/06/27 23:42:47;;;;;;;;;;;;;;;;;;5026274;28;19905;-77
2021/06/27 23:45:18;;;;;;;;;;;;;;;;;;5032328;28;20345;-77
2021/06/27 23:47:44;;;;;;;;;;;;;;;;;;5033655;28;19954;-77
2021/06/27 23:50:10;;;;;;;;;;;;;;;;;;5021577;28;19913;-77
2021/06/27 23:52:39;;;;;;;;;;;;;;;;;;5037772;28;19920;-77
2021/06/27 23:55:05;;;;;;;;;;;;;;;;;;5013607;28;19913;-77
